Titan — WDD7142 — position and weather

sailwx.info

Track history (hours):
 
Tides and Currents Weather Stations Pressure Air Temp Water Temp Dewpoint Dewpoint Depression Visibility Wind Speed Wind Dir Waves Ship Positions

Titan

Owner: Seabulk Towing Service,Inc, Groves, TX. More information available from US FCC via Universal Licensing System and Coast Guard Vessel Documentation Center.

Last reported at 2018-Feb-20 07:30 UTC. Time now 2018-Feb-20 07:34 UTC.
Position N 30°05' W 094°05'.

Length 32 m.

Type: Tug. MMSI: 366268050.

Date/timePositionNaut miles runAvg speedWind from/ knotsBaromVisibWave heightAir tempDewpointWater temp
2018-Feb-20 07:30N 30°05' W 094°05'0 0.0
2018-Feb-20 07:00N 30°05' W 094°05'0 0.0
2018-Feb-20 06:30N 30°05' W 094°05'0 0.0
2018-Feb-20 06:00N 30°05' W 094°05'0 0.0
2018-Feb-20 05:30N 30°05' W 094°05'0 0.0
2018-Feb-20 05:00N 30°05' W 094°05'0 0.0
2018-Feb-20 04:30N 30°05' W 094°05'0 0.0
2018-Feb-20 04:00N 30°05' W 094°05'3 5.4
2018-Feb-20 03:30N 30°04' W 094°02'4 2.9
2018-Feb-20 02:15N 30°01' W 093°60'0 0.2
2018-Feb-20 02:00N 30°01' W 093°60'0 0.6
2018-Feb-20 01:30N 30°01' W 093°59'2 4.1
2018-Feb-20 01:01N 29°60' W 093°57'4 8.9
2018-Feb-20 00:30N 29°59' W 093°52'2 4.4
2018-Feb-20 00:00N 29°57' W 093°52'0 0.0
2018-Feb-19 23:30N 29°57' W 093°52'0 0.0
2018-Feb-19 23:00N 29°57' W 093°52'0 0.0
2018-Feb-19 22:30N 29°57' W 093°52'0 0.0
2018-Feb-19 22:00N 29°57' W 093°52'0 0.0
2018-Feb-19 21:29N 29°57' W 093°52'0 0.0
2018-Feb-19 21:00N 29°57' W 093°52'0 0.0
2018-Feb-19 20:30N 29°57' W 093°52'0 0.0
2018-Feb-19 20:01N 29°57' W 093°52'0 0.0
2018-Feb-19 19:30N 29°57' W 093°52'0 0.0
2018-Feb-19 19:01N 29°57' W 093°52'0 0.0
2018-Feb-19 18:30N 29°57' W 093°52'0 0.0
2018-Feb-19 18:01N 29°57' W 093°52'0 0.0
2018-Feb-19 17:30N 29°57' W 093°52'0 0.0
2018-Feb-19 17:00N 29°57' W 093°52'0 0.0
2018-Feb-19 16:30N 29°57' W 093°52'3 6.2
2018-Feb-19 16:00N 29°54' W 093°54'4 8.6
2018-Feb-19 15:30N 29°51' W 093°57'1 1.8
2018-Feb-19 15:01N 29°51' W 093°58'1 1.3
2018-Feb-19 14:30N 29°50' W 093°58'1 1.3
2018-Feb-19 14:01N 29°51' W 093°58'0 0.2
2018-Feb-19 13:30N 29°51' W 093°58'0 0.1
2018-Feb-19 13:00N 29°51' W 093°58'0 0.6
2018-Feb-19 12:31N 29°50' W 093°58'1 2.8
2018-Feb-19 12:00N 29°51' W 093°57'1 1.6
2018-Feb-19 11:30N 29°52' W 093°56'0 0.0
2018-Feb-19 11:00N 29°52' W 093°56'0 0.0
2018-Feb-19 10:31N 29°52' W 093°56'0 0.0
2018-Feb-19 09:59N 29°52' W 093°56'0 0.0
2018-Feb-19 09:30N 29°52' W 093°56'0 0.0
2018-Feb-19 09:01N 29°52' W 093°56'0 0.0
2018-Feb-19 08:30N 29°52' W 093°56'0 0.0
2018-Feb-19 08:00N 29°52' W 093°56'0 0.0
2018-Feb-19 07:31N 29°52' W 093°56'0 0.0
2018-Feb-19 07:00N 29°52' W 093°56'0 0.0
2018-Feb-19 06:31N 29°52' W 093°56'0 0.0
2018-Feb-19 06:00N 29°52' W 093°56'0 0.0
2018-Feb-19 05:31N 29°52' W 093°56'0 0.0
2018-Feb-19 05:00N 29°52' W 093°56'0 0.0
2018-Feb-19 04:30N 29°52' W 093°56'0 0.0
2018-Feb-19 04:00N 29°52' W 093°56'0 0.0
2018-Feb-19 03:31N 29°52' W 093°56'0 0.0
2018-Feb-19 03:01N 29°52' W 093°56'0 0.0
2018-Feb-19 02:31N 29°52' W 093°56'0 0.0
2018-Feb-19 02:00N 29°52' W 093°56'0 0.0
2018-Feb-19 01:31N 29°52' W 093°56'0 0.0
2018-Feb-19 01:00N 29°52' W 093°56'0 0.0
2018-Feb-19 00:31N 29°52' W 093°56'0 0.0
2018-Feb-19 00:00N 29°52' W 093°56'0 0.0
2018-Feb-18 23:30N 29°52' W 093°56'0 0.0
2018-Feb-18 23:00N 29°52' W 093°56'0 0.0
2018-Feb-18 22:30N 29°52' W 093°56'0 0.5
2018-Feb-18 22:01N 29°52' W 093°56'0 0.0
2018-Feb-18 21:30N 29°52' W 093°56'0 0.0
2018-Feb-18 21:01N 29°52' W 093°56'0 0.0
2018-Feb-18 20:31N 29°52' W 093°56'0 0.0
2018-Feb-18 20:00N 29°52' W 093°56'0 0.0
2018-Feb-18 19:30N 29°52' W 093°56'0 0.0
2018-Feb-18 19:01N 29°52' W 093°56'0 0.0
2018-Feb-18 18:31N 29°52' W 093°56'0 0.0
2018-Feb-18 18:01N 29°52' W 093°56'0 0.0
2018-Feb-18 17:31N 29°52' W 093°56'0 0.0
2018-Feb-18 17:00N 29°52' W 093°56'0 0.0
2018-Feb-18 16:31N 29°52' W 093°56'0 0.0
2018-Feb-18 16:00N 29°52' W 093°56'0 0.0
2018-Feb-18 15:31N 29°52' W 093°56'0 0.0
2018-Feb-18 15:00N 29°52' W 093°56'0 0.0
2018-Feb-18 14:31N 29°52' W 093°56'0 0.0
2018-Feb-18 14:01N 29°52' W 093°56'0 0.0
2018-Feb-18 13:31N 29°52' W 093°56'0 0.0
2018-Feb-18 13:01N 29°52' W 093°56'0 0.0
2018-Feb-18 12:30N 29°52' W 093°56'0 0.0
2018-Feb-18 12:00N 29°52' W 093°56'0 0.0
2018-Feb-18 11:31N 29°52' W 093°56'0 0.0
2018-Feb-18 11:00N 29°52' W 093°56'0 0.0
2018-Feb-18 10:30N 29°52' W 093°56'0 0.0
2018-Feb-18 10:00N 29°52' W 093°56'0 0.0
2018-Feb-18 09:31N 29°52' W 093°56'0 0.0
2018-Feb-18 09:01N 29°52' W 093°56'0 0.0
2018-Feb-18 08:31N 29°52' W 093°56'0 0.0
2018-Feb-18 08:00N 29°52' W 093°56'0 0.0
2018-Feb-18 07:30N 29°52' W 093°56'0 0.0
2018-Feb-18 07:00N 29°52' W 093°56'0 0.0
2018-Feb-18 06:30N 29°52' W 093°56'0 0.0
2018-Feb-18 06:01N 29°52' W 093°56'0 0.0
2018-Feb-18 05:31N 29°52' W 093°56'0 0.0
2018-Feb-18 05:00N 29°52' W 093°56'0 0.0
2018-Feb-18 04:30N 29°52' W 093°56'0 0.0
2018-Feb-18 04:00N 29°52' W 093°56'0 0.0
2018-Feb-18 03:30N 29°52' W 093°56'0 0.0
2018-Feb-18 02:59N 29°52' W 093°56'0 0.0
2018-Feb-18 02:30N 29°52' W 093°56'0 0.0
2018-Feb-18 02:00N 29°52' W 093°56'0 0.0
2018-Feb-18 01:29N 29°52' W 093°56'0 0.0
2018-Feb-18 01:01N 29°52' W 093°56'0 0.0
2018-Feb-18 00:30N 29°52' W 093°56'0 0.0
2018-Feb-18 00:00N 29°52' W 093°56'0 0.0
2018-Feb-17 23:31N 29°52' W 093°56'0 0.0
2018-Feb-17 23:00N 29°52' W 093°56'0 0.0
2018-Feb-17 22:31N 29°52' W 093°56'0 0.0
2018-Feb-17 22:01N 29°52' W 093°56'0 0.0
2018-Feb-17 21:30N 29°52' W 093°56'0 0.0
2018-Feb-17 21:01N 29°52' W 093°56'0 0.0
2018-Feb-17 20:30N 29°52' W 093°56'0 0.0
2018-Feb-17 20:01N 29°52' W 093°56'0 0.0
2018-Feb-17 19:31N 29°52' W 093°56'0 0.0
2018-Feb-17 19:00N 29°52' W 093°56'0 0.0
2018-Feb-17 18:30N 29°52' W 093°56'0 0.0
2018-Feb-17 18:01N 29°52' W 093°56'0 0.0
2018-Feb-17 17:31N 29°52' W 093°56'0 0.0
2018-Feb-17 17:01N 29°52' W 093°56'0 0.0
2018-Feb-17 16:31N 29°52' W 093°56'0 0.0
2018-Feb-17 16:01N 29°52' W 093°56'0 0.0
2018-Feb-17 15:31N 29°52' W 093°56'0 0.0
2018-Feb-17 15:00N 29°52' W 093°56'0 0.0
2018-Feb-17 14:30N 29°52' W 093°56'0 0.0
2018-Feb-17 14:01N 29°52' W 093°56'0 0.0
2018-Feb-17 13:31N 29°52' W 093°56'0 0.0
2018-Feb-17 13:00N 29°52' W 093°56'0 0.0
2018-Feb-17 12:30N 29°52' W 093°56'0 0.0
2018-Feb-17 12:01N 29°52' W 093°56'0 0.0
2018-Feb-17 11:30N 29°52' W 093°56'0 0.0
2018-Feb-17 10:59N 29°52' W 093°56'0 0.0
2018-Feb-17 10:30N 29°52' W 093°56'0 0.0
2018-Feb-17 10:01N 29°52' W 093°56'0 0.0
2018-Feb-17 09:31N 29°52' W 093°56'0 0.0
2018-Feb-17 09:00N 29°52' W 093°56'0 0.0
2018-Feb-17 08:31N 29°52' W 093°56'0 0.0
2018-Feb-17 08:00N 29°52' W 093°56'0 0.0
2018-Feb-17 07:31N 29°52' W 093°56'0 0.0
2018-Feb-17 07:00N 29°52' W 093°56'0 0.0
2018-Feb-17 06:31N 29°52' W 093°56'0 0.0
2018-Feb-17 06:01N 29°52' W 093°56'0 0.0
2018-Feb-17 05:30N 29°52' W 093°56'0 0.0
2018-Feb-17 05:01N 29°52' W 093°56'0 0.0
2018-Feb-17 04:30N 29°52' W 093°56'0 0.0
2018-Feb-17 04:01N 29°52' W 093°56'0 0.0
2018-Feb-17 03:30N 29°52' W 093°56'0 0.0
2018-Feb-17 03:00N 29°52' W 093°56'0 0.0
2018-Feb-17 02:30N 29°52' W 093°56'0 0.0
2018-Feb-17 02:00N 29°52' W 093°56'0 0.0
2018-Feb-17 01:30N 29°52' W 093°56'0 0.0
2018-Feb-17 01:00N 29°52' W 093°56'0 0.0
2018-Feb-17 00:31N 29°52' W 093°56'0 0.0
2018-Feb-17 00:01N 29°52' W 093°56'0 0.0
2018-Feb-16 23:31N 29°52' W 093°56'0 0.0
2018-Feb-16 23:01N 29°52' W 093°56'0 0.0
2018-Feb-16 22:30N 29°52' W 093°56'0 0.0
2018-Feb-16 22:00N 29°52' W 093°56'0 0.0
2018-Feb-16 21:31N 29°52' W 093°56'0 0.0
2018-Feb-16 21:01N 29°52' W 093°56'0 0.0
2018-Feb-16 20:30N 29°52' W 093°56'2 4.5
2018-Feb-16 20:01N 29°50' W 093°58'0 0.3
2018-Feb-16 19:31N 29°50' W 093°58'2 3.3
2018-Feb-16 19:00N 29°51' W 093°57'4 8.4
2018-Feb-16 18:30N 29°55' W 093°54'3 4.9
2018-Feb-16 18:00N 29°57' W 093°52'0 0.0
2018-Feb-16 17:31N 29°57' W 093°52'0 0.0
2018-Feb-16 17:01N 29°57' W 093°52'0 0.0
2018-Feb-16 16:30N 29°57' W 093°52'0 0.0
2018-Feb-16 16:00N 29°57' W 093°52'0 0.0
2018-Feb-16 15:30N 29°57' W 093°52'0 0.0
2018-Feb-16 15:00N 29°57' W 093°52'0 0.0
2018-Feb-16 14:30N 29°57' W 093°52'0 0.0
2018-Feb-16 13:57N 29°57' W 093°52'0 0.0
2018-Feb-16 13:28N 29°57' W 093°52'0 0.0
2018-Feb-16 13:00N 29°57' W 093°52'0 0.0
2018-Feb-16 12:30N 29°57' W 093°52'0 0.0
2018-Feb-16 12:01N 29°57' W 093°52'0 0.0
2018-Feb-16 11:31N 29°57' W 093°52'0 0.0
2018-Feb-16 11:00N 29°57' W 093°52'0 0.0
2018-Feb-16 10:30N 29°57' W 093°52'0 0.0
2018-Feb-16 10:01N 29°57' W 093°52'0 0.0
2018-Feb-16 09:31N 29°57' W 093°52'0 0.0
2018-Feb-16 09:01N 29°57' W 093°52'0 0.0
2018-Feb-16 08:30N 29°57' W 093°52'0 0.0
2018-Feb-16 07:58N 29°57' W 093°52'0 0.0
2018-Feb-16 07:29N 29°57' W 093°52'0 0.0
2018-Feb-16 07:00N 29°57' W 093°52'0 0.0
2018-Feb-16 06:30N 29°57' W 093°52'0 0.0
2018-Feb-16 05:59N 29°57' W 093°52'0 0.0
2018-Feb-16 05:30N 29°57' W 093°52'0 0.0
2018-Feb-16 05:00N 29°57' W 093°52'0 0.0
2018-Feb-16 04:30N 29°57' W 093°52'0 0.0
2018-Feb-16 04:00N 29°57' W 093°52'0 0.0
2018-Feb-16 03:30N 29°57' W 093°52'0 0.0
2018-Feb-16 02:58N 29°57' W 093°52'0 0.0
2018-Feb-16 02:30N 29°57' W 093°52'0 0.0
2018-Feb-16 02:00N 29°57' W 093°52'0 0.0
2018-Feb-16 01:30N 29°57' W 093°52'0 0.0
2018-Feb-16 00:58N 29°57' W 093°52'0 0.0
2018-Feb-16 00:31N 29°57' W 093°52'0 0.0
2018-Feb-16 00:00N 29°57' W 093°52'0 0.0
2018-Feb-15 23:30N 29°57' W 093°52'0 0.0
2018-Feb-15 23:01N 29°57' W 093°52'0 0.0
2018-Feb-15 22:30N 29°57' W 093°52'0 0.0
2018-Feb-15 22:00N 29°57' W 093°52'0 0.0
2018-Feb-15 21:30N 29°57' W 093°52'0 0.0
2018-Feb-15 21:01N 29°57' W 093°52'0 0.0
2018-Feb-15 20:29N 29°57' W 093°52'0 0.0
2018-Feb-15 20:00N 29°57' W 093°52'0 0.0
2018-Feb-15 19:30N 29°57' W 093°52'0 0.0
2018-Feb-15 19:00N 29°57' W 093°52'0 0.0
2018-Feb-15 18:30N 29°57' W 093°52'0 0.0
2018-Feb-15 18:00N 29°57' W 093°52'0 0.0
2018-Feb-15 17:30N 29°57' W 093°52'0 0.0
2018-Feb-15 17:00N 29°57' W 093°52'0 0.0
2018-Feb-15 16:30N 29°57' W 093°52'0 0.0
2018-Feb-15 16:00N 29°57' W 093°52'0 0.0
2018-Feb-15 15:30N 29°57' W 093°52'0 0.0
2018-Feb-15 15:00N 29°57' W 093°52'0 0.0
2018-Feb-15 14:30N 29°57' W 093°52'0 0.0
2018-Feb-15 14:00N 29°57' W 093°52'0 0.0
2018-Feb-15 13:30N 29°57' W 093°52'0 0.0
2018-Feb-15 13:00N 29°57' W 093°52'0 0.0
2018-Feb-15 12:31N 29°57' W 093°52'0 0.0
2018-Feb-15 12:00N 29°57' W 093°52'0 0.0
2018-Feb-15 11:30N 29°57' W 093°52'0 0.0
2018-Feb-15 11:00N 29°57' W 093°52'0 0.0
2018-Feb-15 10:30N 29°57' W 093°52'0 0.0
2018-Feb-15 10:00N 29°57' W 093°52'0 0.0
2018-Feb-15 09:30N 29°57' W 093°52'0 0.0
2018-Feb-15 09:00N 29°57' W 093°52'0 0.0
2018-Feb-15 08:30N 29°57' W 093°52'0 0.0
2018-Feb-15 07:59N 29°57' W 093°52'0 0.0
2018-Feb-15 07:30N 29°57' W 093°52'0 0.0
2018-Feb-15 07:01N 29°57' W 093°52'0 0.0
2018-Feb-15 06:30N 29°57' W 093°52'0 0.0
2018-Feb-15 06:00N 29°57' W 093°52'0 0.0
2018-Feb-15 05:31N 29°57' W 093°52'0 0.0
2018-Feb-15 05:00N 29°57' W 093°52'0 0.0
2018-Feb-15 04:29N 29°57' W 093°52'0 0.0
2018-Feb-15 04:00N 29°57' W 093°52'0 0.0
2018-Feb-15 03:30N 29°57' W 093°52'0 0.0
2018-Feb-15 02:59N 29°57' W 093°52'0 0.0
2018-Feb-15 02:31N 29°57' W 093°52'0 0.0
2018-Feb-15 02:00N 29°57' W 093°52'0 0.0
2018-Feb-15 01:30N 29°57' W 093°52'0 0.0
2018-Feb-15 01:00N 29°57' W 093°52'0 0.0
2018-Feb-15 00:30N 29°57' W 093°52'0 0.0
2018-Feb-15 00:01N 29°57' W 093°52'0 0.0
2018-Feb-14 23:31N 29°57' W 093°52'3 6.1
2018-Feb-14 23:00N 29°54' W 093°54'5 9.1
2018-Feb-14 22:30N 29°50' W 093°57'1 1.5
2018-Feb-14 22:00N 29°50' W 093°58'0 0.0
2018-Feb-14 21:30N 29°50' W 093°58'0 0.0
2018-Feb-14 21:01N 29°50' W 093°58'0 0.0
2018-Feb-14 20:30N 29°50' W 093°58'0 0.0
2018-Feb-14 20:00N 29°50' W 093°58'0 0.0
2018-Feb-14 19:30N 29°50' W 093°58'0 0.0
2018-Feb-14 19:00N 29°50' W 093°58'0 0.0
2018-Feb-14 18:30N 29°50' W 093°58'0 0.0
2018-Feb-14 18:00N 29°50' W 093°58'0 0.0
2018-Feb-14 17:30N 29°50' W 093°58'0 0.0
2018-Feb-14 17:00N 29°50' W 093°58'0 0.0
2018-Feb-14 16:30N 29°50' W 093°58'0 0.0
2018-Feb-14 16:00N 29°50' W 093°58'0 0.0
2018-Feb-14 15:30N 29°50' W 093°58'0 0.0
2018-Feb-14 15:01N 29°50' W 093°58'0 0.0
2018-Feb-14 14:31N 29°50' W 093°58'0 0.4
2018-Feb-14 14:00N 29°50' W 093°58'0 0.0
2018-Feb-14 13:30N 29°50' W 093°58'0 0.0
2018-Feb-14 13:01N 29°50' W 093°58'0 0.0
2018-Feb-14 12:30N 29°50' W 093°58'0 0.0
2018-Feb-14 12:00N 29°50' W 093°58'0 0.0
2018-Feb-14 11:28N 29°50' W 093°58'0 0.0
2018-Feb-14 11:01N 29°50' W 093°58'0 0.0
2018-Feb-14 10:31N 29°50' W 093°58'0 0.0
2018-Feb-14 10:01N 29°50' W 093°58'0 0.0
2018-Feb-14 09:30N 29°50' W 093°58'0 0.0
2018-Feb-14 09:01N 29°50' W 093°58'0 0.0
2018-Feb-14 08:31N 29°50' W 093°58'0 0.0
2018-Feb-14 07:59N 29°50' W 093°58'0 0.1
2018-Feb-14 07:30N 29°50' W 093°58'1 2.1
2018-Feb-14 07:00N 29°51' W 093°58'0 0.3
2018-Feb-14 06:29N 29°51' W 093°58'0 0.0
2018-Feb-14 06:01N 29°51' W 093°58'1 2.5
2018-Feb-14 05:30N 29°50' W 093°57'2 4.1
2018-Feb-14 05:01N 29°52' W 093°56'0 0.0
2018-Feb-14 04:30N 29°52' W 093°56'0 0.0
2018-Feb-14 04:00N 29°52' W 093°56'0 0.0
2018-Feb-14 03:29N 29°52' W 093°56'0 0.0
2018-Feb-14 03:01N 29°52' W 093°56'0 0.0
2018-Feb-14 02:30N 29°52' W 093°56'0 0.0
2018-Feb-14 02:00N 29°52' W 093°56'0 0.0
2018-Feb-14 01:29N 29°52' W 093°56'0 0.0
2018-Feb-14 01:00N 29°52' W 093°56'0 0.0
2018-Feb-14 00:30N 29°52' W 093°56'0 0.0
2018-Feb-14 00:01N 29°52' W 093°56'0 0.0
2018-Feb-13 23:30N 29°52' W 093°56'0 0.0
2018-Feb-13 23:00N 29°52' W 093°56'0 0.0
2018-Feb-13 22:30N 29°52' W 093°56'0 0.0
2018-Feb-13 22:00N 29°52' W 093°56'0 0.0
2018-Feb-13 21:30N 29°52' W 093°56'0 0.0
2018-Feb-13 21:00N 29°52' W 093°56'0 0.0
2018-Feb-13 20:30N 29°52' W 093°56'0 0.0
2018-Feb-13 20:00N 29°52' W 093°56'0 0.0
2018-Feb-13 19:30N 29°52' W 093°56'0 0.0
2018-Feb-13 19:00N 29°52' W 093°56'2 4.2
2018-Feb-13 18:30N 29°50' W 093°58'0 0.0
2018-Feb-13 18:00N 29°50' W 093°58'1 1.9
2018-Feb-13 17:30N 29°49' W 093°58'0 0.1
2018-Feb-13 17:00N 29°49' W 093°58'3 5.4
2018-Feb-13 16:30N 29°51' W 093°56'5 9.7
2018-Feb-13 16:00N 29°55' W 093°53'2 3.0
2018-Feb-13 15:29N 29°57' W 093°52'0 0.0
2018-Feb-13 14:58N 29°57' W 093°52'0 0.0
2018-Feb-13 14:30N 29°57' W 093°52'0 0.0
2018-Feb-13 13:58N 29°57' W 093°52'0 0.0
2018-Feb-13 13:27N 29°57' W 093°52'0 0.0
2018-Feb-13 12:58N 29°57' W 093°52'0 0.0
2018-Feb-13 12:30N 29°57' W 093°52'0 0.0
2018-Feb-13 12:00N 29°57' W 093°52'0 0.0
2018-Feb-13 11:30N 29°57' W 093°52'0 0.0
2018-Feb-13 11:00N 29°57' W 093°52'0 0.0
2018-Feb-13 10:30N 29°57' W 093°52'0 0.0
2018-Feb-13 10:00N 29°57' W 093°52'0 0.4
2018-Feb-13 09:30N 29°57' W 093°52'2 5.0
2018-Feb-13 09:00N 29°59' W 093°53'0 0.0
2018-Feb-13 08:29N 29°59' W 093°53'0 0.0
2018-Feb-13 08:00N 29°59' W 093°53'0 0.0
2018-Feb-13 07:30N 29°59' W 093°53'0 0.4
2018-Feb-13 07:00N 29°59' W 093°53'1 1.4
2018-Feb-13 06:30N 29°59' W 093°54'4 8.0
2018-Feb-13 06:00N 30°01' W 093°58'0 0.7
2018-Feb-13 05:30N 30°01' W 093°58'0 0.8
2018-Feb-13 05:00N 30°01' W 093°59'1 1.9
2018-Feb-13 04:30N 30°01' W 093°58'2 3.7
2018-Feb-13 03:59N 29°59' W 093°56'0 0.0
2018-Feb-13 03:26N 29°59' W 093°56'0 0.0
2018-Feb-13 03:00N 29°59' W 093°56'0 0.0
2018-Feb-13 02:28N 29°59' W 093°56'0 0.0
2018-Feb-13 01:56N 29°59' W 093°56'0 0.7
2018-Feb-13 01:29N 29°59' W 093°56'0 0.0
2018-Feb-13 01:01N 29°59' W 093°56'0 0.3
2018-Feb-13 00:30N 29°59' W 093°56'0 0.9
2018-Feb-12 23:59N 29°59' W 093°56'0 0.0
2018-Feb-12 23:29N 29°59' W 093°56'2 4.6
2018-Feb-12 23:00N 29°59' W 093°54'4 7.2
2018-Feb-12 22:30N 29°59' W 093°49'4 8.1
2018-Feb-12 22:00N 30°01' W 093°45'4 6.4
2018-Feb-12 21:27N 30°04' W 093°43'2 3.4
2018-Feb-12 21:00N 30°03' W 093°44'4 7.7
2018-Feb-12 20:30N 29°60' W 093°47'4 8.0
2018-Feb-12 20:00N 29°58' W 093°51'3 5.7
2018-Feb-12 19:30N 29°56' W 093°53'5 9.2
2018-Feb-12 19:00N 29°52' W 093°56'1 1.2
2018-Feb-12 18:30N 29°52' W 093°56'0 0.0
2018-Feb-12 18:00N 29°52' W 093°56'0 0.0
2018-Feb-12 17:30N 29°52' W 093°56'0 0.0
2018-Feb-12 17:00N 29°52' W 093°56'0 0.0
2018-Feb-12 16:30N 29°52' W 093°56'0 0.0
2018-Feb-12 16:00N 29°52' W 093°56'0 0.0
2018-Feb-12 15:30N 29°52' W 093°56'0 0.0
2018-Feb-12 15:00N 29°52' W 093°56'0 0.0
2018-Feb-12 14:30N 29°52' W 093°56'0 0.0
2018-Feb-12 14:00N 29°52' W 093°56'0 0.0
2018-Feb-12 13:30N 29°52' W 093°56'0 0.0
2018-Feb-12 13:00N 29°52' W 093°56'0 0.0
2018-Feb-12 12:30N 29°52' W 093°56'0 0.0
2018-Feb-12 12:00N 29°52' W 093°56'0 0.0
2018-Feb-12 11:30N 29°52' W 093°56'0 0.0
2018-Feb-12 11:00N 29°52' W 093°56'0 0.0
2018-Feb-12 10:30N 29°52' W 093°56'0 0.0
2018-Feb-12 10:00N 29°52' W 093°56'0 0.0
2018-Feb-12 09:30N 29°52' W 093°56'0 0.0
2018-Feb-12 08:59N 29°52' W 093°56'0 0.0
2018-Feb-12 08:30N 29°52' W 093°56'0 0.0
2018-Feb-12 08:00N 29°52' W 093°56'0 0.0
2018-Feb-12 07:30N 29°52' W 093°56'0 0.0
2018-Feb-12 07:00N 29°52' W 093°56'0 0.0
2018-Feb-12 06:29N 29°52' W 093°56'0 0.0
2018-Feb-12 06:00N 29°52' W 093°56'0 0.0
2018-Feb-12 05:30N 29°52' W 093°56'2 3.6
2018-Feb-12 05:00N 29°50' W 093°57'1 2.3
2018-Feb-12 04:30N 29°51' W 093°58'0 0.2
2018-Feb-12 04:00N 29°51' W 093°58'1 2.1
2018-Feb-12 03:30N 29°50' W 093°58'2 3.2
2018-Feb-12 03:00N 29°48' W 093°57'3 5.5
2018-Feb-12 02:29N 29°51' W 093°57'4 7.6
2018-Feb-12 02:00N 29°54' W 093°54'3 7.0
2018-Feb-12 01:30N 29°57' W 093°52'3 5.2
2018-Feb-12 01:00N 29°59' W 093°53'3 6.0
2018-Feb-12 00:30N 29°60' W 093°57'2 4.9
2018-Feb-12 00:00N 30°01' W 093°59'3 5.4
2018-Feb-11 23:30N 30°02' W 094°02'0 0.3
2018-Feb-11 23:00N 30°02' W 094°02'0 0.4
2018-Feb-11 22:30N 30°02' W 094°02'0 0.9
2018-Feb-11 22:00N 30°02' W 094°02'0 0.1
2018-Feb-11 21:30N 30°03' W 094°02'0 0.0
2018-Feb-11 21:00N 30°03' W 094°02'3 4.4
2018-Feb-11 20:26N 30°05' W 094°04'0 0.7
2018-Feb-11 20:00N 30°05' W 094°04'2 3.0
2018-Feb-11 19:31N 30°04' W 094°02'2 3.2
2018-Feb-11 19:00N 30°02' W 094°02'0 0.0
2018-Feb-11 18:30N 30°02' W 094°02'0 1.0
2018-Feb-11 18:00N 30°03' W 094°02'3 6.7
2018-Feb-11 17:30N 30°05' W 094°05'0 0.0
2018-Feb-11 17:01N 30°05' W 094°05'0 0.0
2018-Feb-11 16:31N 30°05' W 094°05'0 0.0
2018-Feb-11 16:00N 30°05' W 094°05'0 0.0
2018-Feb-11 15:30N 30°05' W 094°05'0 0.0
2018-Feb-11 15:00N 30°05' W 094°05'0 0.0
2018-Feb-11 14:30N 30°05' W 094°05'0 0.0
2018-Feb-11 14:00N 30°05' W 094°05'0 0.0
2018-Feb-11 13:30N 30°05' W 094°05'0 0.0
2018-Feb-11 13:00N 30°05' W 094°05'0 0.0
2018-Feb-11 12:30N 30°05' W 094°05'0 0.0
2018-Feb-11 12:01N 30°05' W 094°05'0 0.0
2018-Feb-11 11:30N 30°05' W 094°05'0 0.0
2018-Feb-11 11:00N 30°05' W 094°05'0 0.0
2018-Feb-11 10:31N 30°05' W 094°05'0 0.0
2018-Feb-11 10:01N 30°05' W 094°05'0 0.0
2018-Feb-11 09:30N 30°05' W 094°05'0 0.0
2018-Feb-11 09:01N 30°05' W 094°05'0 0.0
2018-Feb-11 08:30N 30°05' W 094°05'0 0.0
2018-Feb-11 08:00N 30°05' W 094°05'0 0.0
2018-Feb-11 07:30N 30°05' W 094°05'0 0.0
2018-Feb-11 07:00N 30°05' W 094°05'1 2.1
2018-Feb-11 06:31N 30°05' W 094°04'3 5.4
2018-Feb-11 06:00N 30°02' W 094°02'1 2.6
2018-Feb-11 05:30N 30°01' W 094°01'4 7.8
2018-Feb-11 05:00N 29°60' W 093°57'1 1.4
2018-Feb-11 04:20N 29°59' W 093°56'0 0.0
2018-Feb-11 04:00N 29°59' W 093°56'0 0.0
2018-Feb-11 03:21N 29°59' W 093°56'0 0.0
2018-Feb-11 03:00N 29°59' W 093°56'0 0.0
2018-Feb-11 02:31N 29°59' W 093°56'0 0.0
2018-Feb-11 02:01N 29°59' W 093°56'0 0.0
2018-Feb-11 01:29N 29°59' W 093°56'0 0.0
2018-Feb-11 00:58N 29°59' W 093°56'0 0.0
2018-Feb-11 00:29N 29°59' W 093°56'0 0.0
2018-Feb-10 23:57N 29°59' W 093°56'0 0.0
2018-Feb-10 23:30N 29°59' W 093°56'0 0.6
2018-Feb-10 23:00N 29°59' W 093°56'0 0.6
2018-Feb-10 22:30N 29°59' W 093°56'0 0.0
2018-Feb-10 22:00N 29°59' W 093°56'0 0.0
2018-Feb-10 21:30N 29°59' W 093°56'0 0.0
2018-Feb-10 21:00N 29°59' W 093°56'0 0.0
2018-Feb-10 20:30N 29°59' W 093°56'0 0.0
2018-Feb-10 19:59N 29°59' W 093°56'0 0.0
2018-Feb-10 19:30N 29°59' W 093°56'0 0.0
2018-Feb-10 18:58N 29°59' W 093°56'0 0.0
2018-Feb-10 18:30N 29°59' W 093°56'0 0.0
2018-Feb-10 18:01N 29°59' W 093°56'0 0.0
2018-Feb-10 17:30N 29°59' W 093°56'0 0.0
2018-Feb-10 16:59N 29°59' W 093°56'0 0.9
2018-Feb-10 16:26N 29°59' W 093°56'4 8.6
2018-Feb-10 16:00N 29°58' W 093°51'2 3.7
2018-Feb-10 15:30N 29°57' W 093°52'0 0.0
2018-Feb-10 14:58N 29°57' W 093°52'0 0.0
2018-Feb-10 14:30N 29°57' W 093°52'0 0.0
2018-Feb-10 14:00N 29°57' W 093°52'0 0.0
2018-Feb-10 13:26N 29°57' W 093°52'0 0.0
2018-Feb-10 13:00N 29°57' W 093°52'0 0.0
2018-Feb-10 12:30N 29°57' W 093°52'0 0.0
2018-Feb-10 12:00N 29°57' W 093°52'0 0.0
2018-Feb-10 11:31N 29°57' W 093°52'0 0.0
2018-Feb-10 11:01N 29°57' W 093°52'0 0.0
2018-Feb-10 10:31N 29°57' W 093°52'0 0.0
2018-Feb-10 10:00N 29°57' W 093°52'0 0.0
2018-Feb-10 09:30N 29°57' W 093°52'0 0.0
2018-Feb-10 09:00N 29°57' W 093°52'0 0.0
2018-Feb-10 08:25N 29°57' W 093°52'0 0.0
2018-Feb-10 08:00N 29°57' W 093°52'  
Track history (hours):
 
Tides and Currents Weather Stations Pressure Air Temp Water Temp Dewpoint Dewpoint Depression Visibility Wind Speed Wind Dir Waves Ship Positions

Titan

Owner: Seabulk Towing Service,Inc, Groves, TX. More information available from US FCC via Universal Licensing System and Coast Guard Vessel Documentation Center.

Last reported at 2018-Feb-20 07:30 UTC. Time now 2018-Feb-20 07:34 UTC.
Position N 30°05' W 094°05'.

Length 32 m.

Type: Tug. MMSI: 366268050.

Date/timePositionNaut miles runAvg speedWind from/ knotsBaromVisibWave heightAir tempDewpointWater temp
2018-Feb-20 07:30N 30°05' W 094°05'0 0.0
2018-Feb-20 07:00N 30°05' W 094°05'0 0.0
2018-Feb-20 06:30N 30°05' W 094°05'0 0.0
2018-Feb-20 06:00N 30°05' W 094°05'0 0.0
2018-Feb-20 05:30N 30°05' W 094°05'0 0.0
2018-Feb-20 05:00N 30°05' W 094°05'0 0.0
2018-Feb-20 04:30N 30°05' W 094°05'0 0.0
2018-Feb-20 04:00N 30°05' W 094°05'3 5.4
2018-Feb-20 03:30N 30°04' W 094°02'4 2.9
2018-Feb-20 02:15N 30°01' W 093°60'0 0.2
2018-Feb-20 02:00N 30°01' W 093°60'0 0.6
2018-Feb-20 01:30N 30°01' W 093°59'2 4.1
2018-Feb-20 01:01N 29°60' W 093°57'4 8.9
2018-Feb-20 00:30N 29°59' W 093°52'2 4.4
2018-Feb-20 00:00N 29°57' W 093°52'0 0.0
2018-Feb-19 23:30N 29°57' W 093°52'0 0.0
2018-Feb-19 23:00N 29°57' W 093°52'0 0.0
2018-Feb-19 22:30N 29°57' W 093°52'0 0.0
2018-Feb-19 22:00N 29°57' W 093°52'0 0.0
2018-Feb-19 21:29N 29°57' W 093°52'0 0.0
2018-Feb-19 21:00N 29°57' W 093°52'0 0.0
2018-Feb-19 20:30N 29°57' W 093°52'0 0.0
2018-Feb-19 20:01N 29°57' W 093°52'0 0.0
2018-Feb-19 19:30N 29°57' W 093°52'0 0.0
2018-Feb-19 19:01N 29°57' W 093°52'0 0.0
2018-Feb-19 18:30N 29°57' W 093°52'0 0.0
2018-Feb-19 18:01N 29°57' W 093°52'0 0.0
2018-Feb-19 17:30N 29°57' W 093°52'0 0.0
2018-Feb-19 17:00N 29°57' W 093°52'0 0.0
2018-Feb-19 16:30N 29°57' W 093°52'3 6.2
2018-Feb-19 16:00N 29°54' W 093°54'4 8.6
2018-Feb-19 15:30N 29°51' W 093°57'1 1.8
2018-Feb-19 15:01N 29°51' W 093°58'1 1.3
2018-Feb-19 14:30N 29°50' W 093°58'1 1.3
2018-Feb-19 14:01N 29°51' W 093°58'0 0.2
2018-Feb-19 13:30N 29°51' W 093°58'0 0.1
2018-Feb-19 13:00N 29°51' W 093°58'0 0.6
2018-Feb-19 12:31N 29°50' W 093°58'1 2.8
2018-Feb-19 12:00N 29°51' W 093°57'1 1.6
2018-Feb-19 11:30N 29°52' W 093°56'0 0.0
2018-Feb-19 11:00N 29°52' W 093°56'0 0.0
2018-Feb-19 10:31N 29°52' W 093°56'0 0.0
2018-Feb-19 09:59N 29°52' W 093°56'0 0.0
2018-Feb-19 09:30N 29°52' W 093°56'0 0.0
2018-Feb-19 09:01N 29°52' W 093°56'0 0.0
2018-Feb-19 08:30N 29°52' W 093°56'0 0.0
2018-Feb-19 08:00N 29°52' W 093°56'0 0.0
2018-Feb-19 07:31N 29°52' W 093°56'0 0.0
2018-Feb-19 07:00N 29°52' W 093°56'0 0.0
2018-Feb-19 06:31N 29°52' W 093°56'0 0.0
2018-Feb-19 06:00N 29°52' W 093°56'0 0.0
2018-Feb-19 05:31N 29°52' W 093°56'0 0.0
2018-Feb-19 05:00N 29°52' W 093°56'0 0.0
2018-Feb-19 04:30N 29°52' W 093°56'0 0.0
2018-Feb-19 04:00N 29°52' W 093°56'0 0.0
2018-Feb-19 03:31N 29°52' W 093°56'0 0.0
2018-Feb-19 03:01N 29°52' W 093°56'0 0.0
2018-Feb-19 02:31N 29°52' W 093°56'0 0.0
2018-Feb-19 02:00N 29°52' W 093°56'0 0.0
2018-Feb-19 01:31N 29°52' W 093°56'0 0.0
2018-Feb-19 01:00N 29°52' W 093°56'0 0.0
2018-Feb-19 00:31N 29°52' W 093°56'0 0.0
2018-Feb-19 00:00N 29°52' W 093°56'0 0.0
2018-Feb-18 23:30N 29°52' W 093°56'0 0.0
2018-Feb-18 23:00N 29°52' W 093°56'0 0.0
2018-Feb-18 22:30N 29°52' W 093°56'0 0.5
2018-Feb-18 22:01N 29°52' W 093°56'0 0.0
2018-Feb-18 21:30N 29°52' W 093°56'0 0.0
2018-Feb-18 21:01N 29°52' W 093°56'0 0.0
2018-Feb-18 20:31N 29°52' W 093°56'0 0.0
2018-Feb-18 20:00N 29°52' W 093°56'0 0.0
2018-Feb-18 19:30N 29°52' W 093°56'0 0.0
2018-Feb-18 19:01N 29°52' W 093°56'0 0.0
2018-Feb-18 18:31N 29°52' W 093°56'0 0.0
2018-Feb-18 18:01N 29°52' W 093°56'0 0.0
2018-Feb-18 17:31N 29°52' W 093°56'0 0.0
2018-Feb-18 17:00N 29°52' W 093°56'0 0.0
2018-Feb-18 16:31N 29°52' W 093°56'0 0.0
2018-Feb-18 16:00N 29°52' W 093°56'0 0.0
2018-Feb-18 15:31N 29°52' W 093°56'0 0.0
2018-Feb-18 15:00N 29°52' W 093°56'0 0.0
2018-Feb-18 14:31N 29°52' W 093°56'0 0.0
2018-Feb-18 14:01N 29°52' W 093°56'0 0.0
2018-Feb-18 13:31N 29°52' W 093°56'0 0.0
2018-Feb-18 13:01N 29°52' W 093°56'0 0.0
2018-Feb-18 12:30N 29°52' W 093°56'0 0.0
2018-Feb-18 12:00N 29°52' W 093°56'0 0.0
2018-Feb-18 11:31N 29°52' W 093°56'0 0.0
2018-Feb-18 11:00N 29°52' W 093°56'0 0.0
2018-Feb-18 10:30N 29°52' W 093°56'0 0.0
2018-Feb-18 10:00N 29°52' W 093°56'0 0.0
2018-Feb-18 09:31N 29°52' W 093°56'0 0.0
2018-Feb-18 09:01N 29°52' W 093°56'0 0.0
2018-Feb-18 08:31N 29°52' W 093°56'0 0.0
2018-Feb-18 08:00N 29°52' W 093°56'0 0.0
2018-Feb-18 07:30N 29°52' W 093°56'0 0.0
2018-Feb-18 07:00N 29°52' W 093°56'0 0.0
2018-Feb-18 06:30N 29°52' W 093°56'0 0.0
2018-Feb-18 06:01N 29°52' W 093°56'0 0.0
2018-Feb-18 05:31N 29°52' W 093°56'0 0.0
2018-Feb-18 05:00N 29°52' W 093°56'0 0.0
2018-Feb-18 04:30N 29°52' W 093°56'0 0.0
2018-Feb-18 04:00N 29°52' W 093°56'0 0.0
2018-Feb-18 03:30N 29°52' W 093°56'0 0.0
2018-Feb-18 02:59N 29°52' W 093°56'0 0.0
2018-Feb-18 02:30N 29°52' W 093°56'0 0.0
2018-Feb-18 02:00N 29°52' W 093°56'0 0.0
2018-Feb-18 01:29N 29°52' W 093°56'0 0.0
2018-Feb-18 01:01N 29°52' W 093°56'0 0.0
2018-Feb-18 00:30N 29°52' W 093°56'0 0.0
2018-Feb-18 00:00N 29°52' W 093°56'0 0.0
2018-Feb-17 23:31N 29°52' W 093°56'0 0.0
2018-Feb-17 23:00N 29°52' W 093°56'0 0.0
2018-Feb-17 22:31N 29°52' W 093°56'0 0.0
2018-Feb-17 22:01N 29°52' W 093°56'0 0.0
2018-Feb-17 21:30N 29°52' W 093°56'0 0.0
2018-Feb-17 21:01N 29°52' W 093°56'0 0.0
2018-Feb-17 20:30N 29°52' W 093°56'0 0.0
2018-Feb-17 20:01N 29°52' W 093°56'0 0.0
2018-Feb-17 19:31N 29°52' W 093°56'0 0.0
2018-Feb-17 19:00N 29°52' W 093°56'0 0.0
2018-Feb-17 18:30N 29°52' W 093°56'0 0.0
2018-Feb-17 18:01N 29°52' W 093°56'0 0.0
2018-Feb-17 17:31N 29°52' W 093°56'0 0.0
2018-Feb-17 17:01N 29°52' W 093°56'0 0.0
2018-Feb-17 16:31N 29°52' W 093°56'0 0.0
2018-Feb-17 16:01N 29°52' W 093°56'0 0.0
2018-Feb-17 15:31N 29°52' W 093°56'0 0.0
2018-Feb-17 15:00N 29°52' W 093°56'0 0.0
2018-Feb-17 14:30N 29°52' W 093°56'0 0.0
2018-Feb-17 14:01N 29°52' W 093°56'0 0.0
2018-Feb-17 13:31N 29°52' W 093°56'0 0.0
2018-Feb-17 13:00N 29°52' W 093°56'0 0.0
2018-Feb-17 12:30N 29°52' W 093°56'0 0.0
2018-Feb-17 12:01N 29°52' W 093°56'0 0.0
2018-Feb-17 11:30N 29°52' W 093°56'0 0.0
2018-Feb-17 10:59N 29°52' W 093°56'0 0.0
2018-Feb-17 10:30N 29°52' W 093°56'0 0.0
2018-Feb-17 10:01N 29°52' W 093°56'0 0.0
2018-Feb-17 09:31N 29°52' W 093°56'0 0.0
2018-Feb-17 09:00N 29°52' W 093°56'0 0.0
2018-Feb-17 08:31N 29°52' W 093°56'0 0.0
2018-Feb-17 08:00N 29°52' W 093°56'0 0.0
2018-Feb-17 07:31N 29°52' W 093°56'0 0.0
2018-Feb-17 07:00N 29°52' W 093°56'0 0.0
2018-Feb-17 06:31N 29°52' W 093°56'0 0.0
2018-Feb-17 06:01N 29°52' W 093°56'0 0.0
2018-Feb-17 05:30N 29°52' W 093°56'0 0.0
2018-Feb-17 05:01N 29°52' W 093°56'0 0.0
2018-Feb-17 04:30N 29°52' W 093°56'0 0.0
2018-Feb-17 04:01N 29°52' W 093°56'0 0.0
2018-Feb-17 03:30N 29°52' W 093°56'0 0.0
2018-Feb-17 03:00N 29°52' W 093°56'0 0.0
2018-Feb-17 02:30N 29°52' W 093°56'0 0.0
2018-Feb-17 02:00N 29°52' W 093°56'0 0.0
2018-Feb-17 01:30N 29°52' W 093°56'0 0.0
2018-Feb-17 01:00N 29°52' W 093°56'0 0.0
2018-Feb-17 00:31N 29°52' W 093°56'0 0.0
2018-Feb-17 00:01N 29°52' W 093°56'0 0.0
2018-Feb-16 23:31N 29°52' W 093°56'0 0.0
2018-Feb-16 23:01N 29°52' W 093°56'0 0.0
2018-Feb-16 22:30N 29°52' W 093°56'0 0.0
2018-Feb-16 22:00N 29°52' W 093°56'0 0.0
2018-Feb-16 21:31N 29°52' W 093°56'0 0.0
2018-Feb-16 21:01N 29°52' W 093°56'0 0.0
2018-Feb-16 20:30N 29°52' W 093°56'2 4.5
2018-Feb-16 20:01N 29°50' W 093°58'0 0.3
2018-Feb-16 19:31N 29°50' W 093°58'2 3.3
2018-Feb-16 19:00N 29°51' W 093°57'4 8.4
2018-Feb-16 18:30N 29°55' W 093°54'3 4.9
2018-Feb-16 18:00N 29°57' W 093°52'0 0.0
2018-Feb-16 17:31N 29°57' W 093°52'0 0.0
2018-Feb-16 17:01N 29°57' W 093°52'0 0.0
2018-Feb-16 16:30N 29°57' W 093°52'0 0.0
2018-Feb-16 16:00N 29°57' W 093°52'0 0.0
2018-Feb-16 15:30N 29°57' W 093°52'0 0.0
2018-Feb-16 15:00N 29°57' W 093°52'0 0.0
2018-Feb-16 14:30N 29°57' W 093°52'0 0.0
2018-Feb-16 13:57N 29°57' W 093°52'0 0.0
2018-Feb-16 13:28N 29°57' W 093°52'0 0.0
2018-Feb-16 13:00N 29°57' W 093°52'0 0.0
2018-Feb-16 12:30N 29°57' W 093°52'0 0.0
2018-Feb-16 12:01N 29°57' W 093°52'0 0.0
2018-Feb-16 11:31N 29°57' W 093°52'0 0.0
2018-Feb-16 11:00N 29°57' W 093°52'0 0.0
2018-Feb-16 10:30N 29°57' W 093°52'0 0.0
2018-Feb-16 10:01N 29°57' W 093°52'0 0.0
2018-Feb-16 09:31N 29°57' W 093°52'0 0.0
2018-Feb-16 09:01N 29°57' W 093°52'0 0.0
2018-Feb-16 08:30N 29°57' W 093°52'0 0.0
2018-Feb-16 07:58N 29°57' W 093°52'0 0.0
2018-Feb-16 07:29N 29°57' W 093°52'0 0.0
2018-Feb-16 07:00N 29°57' W 093°52'0 0.0
2018-Feb-16 06:30N 29°57' W 093°52'0 0.0
2018-Feb-16 05:59N 29°57' W 093°52'0 0.0
2018-Feb-16 05:30N 29°57' W 093°52'0 0.0
2018-Feb-16 05:00N 29°57' W 093°52'0 0.0
2018-Feb-16 04:30N 29°57' W 093°52'0 0.0
2018-Feb-16 04:00N 29°57' W 093°52'0 0.0
2018-Feb-16 03:30N 29°57' W 093°52'0 0.0
2018-Feb-16 02:58N 29°57' W 093°52'0 0.0
2018-Feb-16 02:30N 29°57' W 093°52'0 0.0
2018-Feb-16 02:00N 29°57' W 093°52'0 0.0
2018-Feb-16 01:30N 29°57' W 093°52'0 0.0
2018-Feb-16 00:58N 29°57' W 093°52'0 0.0
2018-Feb-16 00:31N 29°57' W 093°52'0 0.0
2018-Feb-16 00:00N 29°57' W 093°52'0 0.0
2018-Feb-15 23:30N 29°57' W 093°52'0 0.0
2018-Feb-15 23:01N 29°57' W 093°52'0 0.0
2018-Feb-15 22:30N 29°57' W 093°52'0 0.0
2018-Feb-15 22:00N 29°57' W 093°52'0 0.0
2018-Feb-15 21:30N 29°57' W 093°52'0 0.0
2018-Feb-15 21:01N 29°57' W 093°52'0 0.0
2018-Feb-15 20:29N 29°57' W 093°52'0 0.0
2018-Feb-15 20:00N 29°57' W 093°52'0 0.0
2018-Feb-15 19:30N 29°57' W 093°52'0 0.0
2018-Feb-15 19:00N 29°57' W 093°52'0 0.0
2018-Feb-15 18:30N 29°57' W 093°52'0 0.0
2018-Feb-15 18:00N 29°57' W 093°52'0 0.0
2018-Feb-15 17:30N 29°57' W 093°52'0 0.0
2018-Feb-15 17:00N 29°57' W 093°52'0 0.0
2018-Feb-15 16:30N 29°57' W 093°52'0 0.0
2018-Feb-15 16:00N 29°57' W 093°52'0 0.0
2018-Feb-15 15:30N 29°57' W 093°52'0 0.0
2018-Feb-15 15:00N 29°57' W 093°52'0 0.0
2018-Feb-15 14:30N 29°57' W 093°52'0 0.0
2018-Feb-15 14:00N 29°57' W 093°52'0 0.0
2018-Feb-15 13:30N 29°57' W 093°52'0 0.0
2018-Feb-15 13:00N 29°57' W 093°52'0 0.0
2018-Feb-15 12:31N 29°57' W 093°52'0 0.0
2018-Feb-15 12:00N 29°57' W 093°52'0 0.0
2018-Feb-15 11:30N 29°57' W 093°52'0 0.0
2018-Feb-15 11:00N 29°57' W 093°52'0 0.0
2018-Feb-15 10:30N 29°57' W 093°52'0 0.0
2018-Feb-15 10:00N 29°57' W 093°52'0 0.0
2018-Feb-15 09:30N 29°57' W 093°52'0 0.0
2018-Feb-15 09:00N 29°57' W 093°52'0 0.0
2018-Feb-15 08:30N 29°57' W 093°52'0 0.0
2018-Feb-15 07:59N 29°57' W 093°52'0 0.0
2018-Feb-15 07:30N 29°57' W 093°52'0 0.0
2018-Feb-15 07:01N 29°57' W 093°52'0 0.0
2018-Feb-15 06:30N 29°57' W 093°52'0 0.0
2018-Feb-15 06:00N 29°57' W 093°52'0 0.0
2018-Feb-15 05:31N 29°57' W 093°52'0 0.0
2018-Feb-15 05:00N 29°57' W 093°52'0 0.0
2018-Feb-15 04:29N 29°57' W 093°52'0 0.0
2018-Feb-15 04:00N 29°57' W 093°52'0 0.0
2018-Feb-15 03:30N 29°57' W 093°52'0 0.0
2018-Feb-15 02:59N 29°57' W 093°52'0 0.0
2018-Feb-15 02:31N 29°57' W 093°52'0 0.0
2018-Feb-15 02:00N 29°57' W 093°52'0 0.0
2018-Feb-15 01:30N 29°57' W 093°52'0 0.0
2018-Feb-15 01:00N 29°57' W 093°52'0 0.0
2018-Feb-15 00:30N 29°57' W 093°52'0 0.0
2018-Feb-15 00:01N 29°57' W 093°52'0 0.0
2018-Feb-14 23:31N 29°57' W 093°52'3 6.1
2018-Feb-14 23:00N 29°54' W 093°54'5 9.1
2018-Feb-14 22:30N 29°50' W 093°57'1 1.5
2018-Feb-14 22:00N 29°50' W 093°58'0 0.0
2018-Feb-14 21:30N 29°50' W 093°58'0 0.0
2018-Feb-14 21:01N 29°50' W 093°58'0 0.0
2018-Feb-14 20:30N 29°50' W 093°58'0 0.0
2018-Feb-14 20:00N 29°50' W 093°58'0 0.0
2018-Feb-14 19:30N 29°50' W 093°58'0 0.0
2018-Feb-14 19:00N 29°50' W 093°58'0 0.0
2018-Feb-14 18:30N 29°50' W 093°58'0 0.0
2018-Feb-14 18:00N 29°50' W 093°58'0 0.0
2018-Feb-14 17:30N 29°50' W 093°58'0 0.0
2018-Feb-14 17:00N 29°50' W 093°58'0 0.0
2018-Feb-14 16:30N 29°50' W 093°58'0 0.0
2018-Feb-14 16:00N 29°50' W 093°58'0 0.0
2018-Feb-14 15:30N 29°50' W 093°58'0 0.0
2018-Feb-14 15:01N 29°50' W 093°58'0 0.0
2018-Feb-14 14:31N 29°50' W 093°58'0 0.4
2018-Feb-14 14:00N 29°50' W 093°58'0 0.0
2018-Feb-14 13:30N 29°50' W 093°58'0 0.0
2018-Feb-14 13:01N 29°50' W 093°58'0 0.0
2018-Feb-14 12:30N 29°50' W 093°58'0 0.0
2018-Feb-14 12:00N 29°50' W 093°58'0 0.0
2018-Feb-14 11:28N 29°50' W 093°58'0 0.0
2018-Feb-14 11:01N 29°50' W 093°58'0 0.0
2018-Feb-14 10:31N 29°50' W 093°58'0 0.0
2018-Feb-14 10:01N 29°50' W 093°58'0 0.0
2018-Feb-14 09:30N 29°50' W 093°58'0 0.0
2018-Feb-14 09:01N 29°50' W 093°58'0 0.0
2018-Feb-14 08:31N 29°50' W 093°58'0 0.0
2018-Feb-14 07:59N 29°50' W 093°58'0 0.1
2018-Feb-14 07:30N 29°50' W 093°58'1 2.1
2018-Feb-14 07:00N 29°51' W 093°58'0 0.3
2018-Feb-14 06:29N 29°51' W 093°58'0 0.0
2018-Feb-14 06:01N 29°51' W 093°58'1 2.5
2018-Feb-14 05:30N 29°50' W 093°57'2 4.1
2018-Feb-14 05:01N 29°52' W 093°56'0 0.0
2018-Feb-14 04:30N 29°52' W 093°56'0 0.0
2018-Feb-14 04:00N 29°52' W 093°56'0 0.0
2018-Feb-14 03:29N 29°52' W 093°56'0 0.0
2018-Feb-14 03:01N 29°52' W 093°56'0 0.0
2018-Feb-14 02:30N 29°52' W 093°56'0 0.0
2018-Feb-14 02:00N 29°52' W 093°56'0 0.0
2018-Feb-14 01:29N 29°52' W 093°56'0 0.0
2018-Feb-14 01:00N 29°52' W 093°56'0 0.0
2018-Feb-14 00:30N 29°52' W 093°56'0 0.0
2018-Feb-14 00:01N 29°52' W 093°56'0 0.0
2018-Feb-13 23:30N 29°52' W 093°56'0 0.0
2018-Feb-13 23:00N 29°52' W 093°56'0 0.0
2018-Feb-13 22:30N 29°52' W 093°56'0 0.0
2018-Feb-13 22:00N 29°52' W 093°56'0 0.0
2018-Feb-13 21:30N 29°52' W 093°56'0 0.0
2018-Feb-13 21:00N 29°52' W 093°56'0 0.0
2018-Feb-13 20:30N 29°52' W 093°56'0 0.0
2018-Feb-13 20:00N 29°52' W 093°56'0 0.0
2018-Feb-13 19:30N 29°52' W 093°56'0 0.0
2018-Feb-13 19:00N 29°52' W 093°56'2 4.2
2018-Feb-13 18:30N 29°50' W 093°58'0 0.0
2018-Feb-13 18:00N 29°50' W 093°58'1 1.9
2018-Feb-13 17:30N 29°49' W 093°58'0 0.1
2018-Feb-13 17:00N 29°49' W 093°58'3 5.4
2018-Feb-13 16:30N 29°51' W 093°56'5 9.7
2018-Feb-13 16:00N 29°55' W 093°53'2 3.0
2018-Feb-13 15:29N 29°57' W 093°52'0 0.0
2018-Feb-13 14:58N 29°57' W 093°52'0 0.0
2018-Feb-13 14:30N 29°57' W 093°52'0 0.0
2018-Feb-13 13:58N 29°57' W 093°52'0 0.0
2018-Feb-13 13:27N 29°57' W 093°52'0 0.0
2018-Feb-13 12:58N 29°57' W 093°52'0 0.0
2018-Feb-13 12:30N 29°57' W 093°52'0 0.0
2018-Feb-13 12:00N 29°57' W 093°52'0 0.0
2018-Feb-13 11:30N 29°57' W 093°52'0 0.0
2018-Feb-13 11:00N 29°57' W 093°52'0 0.0
2018-Feb-13 10:30N 29°57' W 093°52'0 0.0
2018-Feb-13 10:00N 29°57' W 093°52'0 0.4
2018-Feb-13 09:30N 29°57' W 093°52'2 5.0
2018-Feb-13 09:00N 29°59' W 093°53'0 0.0
2018-Feb-13 08:29N 29°59' W 093°53'0 0.0
2018-Feb-13 08:00N 29°59' W 093°53'0 0.0
2018-Feb-13 07:30N 29°59' W 093°53'0 0.4
2018-Feb-13 07:00N 29°59' W 093°53'1 1.4
2018-Feb-13 06:30N 29°59' W 093°54'4 8.0
2018-Feb-13 06:00N 30°01' W 093°58'0 0.7
2018-Feb-13 05:30N 30°01' W 093°58'0 0.8
2018-Feb-13 05:00N 30°01' W 093°59'1 1.9
2018-Feb-13 04:30N 30°01' W 093°58'2 3.7
2018-Feb-13 03:59N 29°59' W 093°56'0 0.0
2018-Feb-13 03:26N 29°59' W 093°56'0 0.0
2018-Feb-13 03:00N 29°59' W 093°56'0 0.0
2018-Feb-13 02:28N 29°59' W 093°56'0 0.0
2018-Feb-13 01:56N 29°59' W 093°56'0 0.7
2018-Feb-13 01:29N 29°59' W 093°56'0 0.0
2018-Feb-13 01:01N 29°59' W 093°56'0 0.3
2018-Feb-13 00:30N 29°59' W 093°56'0 0.9
2018-Feb-12 23:59N 29°59' W 093°56'0 0.0
2018-Feb-12 23:29N 29°59' W 093°56'2 4.6
2018-Feb-12 23:00N 29°59' W 093°54'4 7.2
2018-Feb-12 22:30N 29°59' W 093°49'4 8.1
2018-Feb-12 22:00N 30°01' W 093°45'4 6.4
2018-Feb-12 21:27N 30°04' W 093°43'2 3.4
2018-Feb-12 21:00N 30°03' W 093°44'4 7.7
2018-Feb-12 20:30N 29°60' W 093°47'4 8.0
2018-Feb-12 20:00N 29°58' W 093°51'3 5.7
2018-Feb-12 19:30N 29°56' W 093°53'5 9.2
2018-Feb-12 19:00N 29°52' W 093°56'1 1.2
2018-Feb-12 18:30N 29°52' W 093°56'0 0.0
2018-Feb-12 18:00N 29°52' W 093°56'0 0.0
2018-Feb-12 17:30N 29°52' W 093°56'0 0.0
2018-Feb-12 17:00N 29°52' W 093°56'0 0.0
2018-Feb-12 16:30N 29°52' W 093°56'0 0.0
2018-Feb-12 16:00N 29°52' W 093°56'0 0.0
2018-Feb-12 15:30N 29°52' W 093°56'0 0.0
2018-Feb-12 15:00N 29°52' W 093°56'0 0.0
2018-Feb-12 14:30N 29°52' W 093°56'0 0.0
2018-Feb-12 14:00N 29°52' W 093°56'0 0.0
2018-Feb-12 13:30N 29°52' W 093°56'0 0.0
2018-Feb-12 13:00N 29°52' W 093°56'0 0.0
2018-Feb-12 12:30N 29°52' W 093°56'0 0.0
2018-Feb-12 12:00N 29°52' W 093°56'0 0.0
2018-Feb-12 11:30N 29°52' W 093°56'0 0.0
2018-Feb-12 11:00N 29°52' W 093°56'0 0.0
2018-Feb-12 10:30N 29°52' W 093°56'0 0.0
2018-Feb-12 10:00N 29°52' W 093°56'0 0.0
2018-Feb-12 09:30N 29°52' W 093°56'0 0.0
2018-Feb-12 08:59N 29°52' W 093°56'0 0.0
2018-Feb-12 08:30N 29°52' W 093°56'0 0.0
2018-Feb-12 08:00N 29°52' W 093°56'0 0.0
2018-Feb-12 07:30N 29°52' W 093°56'0 0.0
2018-Feb-12 07:00N 29°52' W 093°56'0 0.0
2018-Feb-12 06:29N 29°52' W 093°56'0 0.0
2018-Feb-12 06:00N 29°52' W 093°56'0 0.0
2018-Feb-12 05:30N 29°52' W 093°56'2 3.6
2018-Feb-12 05:00N 29°50' W 093°57'1 2.3
2018-Feb-12 04:30N 29°51' W 093°58'0 0.2
2018-Feb-12 04:00N 29°51' W 093°58'1 2.1
2018-Feb-12 03:30N 29°50' W 093°58'2 3.2
2018-Feb-12 03:00N 29°48' W 093°57'3 5.5
2018-Feb-12 02:29N 29°51' W 093°57'4 7.6
2018-Feb-12 02:00N 29°54' W 093°54'3 7.0
2018-Feb-12 01:30N 29°57' W 093°52'3 5.2
2018-Feb-12 01:00N 29°59' W 093°53'3 6.0
2018-Feb-12 00:30N 29°60' W 093°57'2 4.9
2018-Feb-12 00:00N 30°01' W 093°59'3 5.4
2018-Feb-11 23:30N 30°02' W 094°02'0 0.3
2018-Feb-11 23:00N 30°02' W 094°02'0 0.4
2018-Feb-11 22:30N 30°02' W 094°02'0 0.9
2018-Feb-11 22:00N 30°02' W 094°02'0 0.1
2018-Feb-11 21:30N 30°03' W 094°02'0 0.0
2018-Feb-11 21:00N 30°03' W 094°02'3 4.4
2018-Feb-11 20:26N 30°05' W 094°04'0 0.7
2018-Feb-11 20:00N 30°05' W 094°04'2 3.0
2018-Feb-11 19:31N 30°04' W 094°02'2 3.2
2018-Feb-11 19:00N 30°02' W 094°02'0 0.0
2018-Feb-11 18:30N 30°02' W 094°02'0 1.0
2018-Feb-11 18:00N 30°03' W 094°02'3 6.7
2018-Feb-11 17:30N 30°05' W 094°05'0 0.0
2018-Feb-11 17:01N 30°05' W 094°05'0 0.0
2018-Feb-11 16:31N 30°05' W 094°05'0 0.0
2018-Feb-11 16:00N 30°05' W 094°05'0 0.0
2018-Feb-11 15:30N 30°05' W 094°05'0 0.0
2018-Feb-11 15:00N 30°05' W 094°05'0 0.0
2018-Feb-11 14:30N 30°05' W 094°05'0 0.0
2018-Feb-11 14:00N 30°05' W 094°05'0 0.0
2018-Feb-11 13:30N 30°05' W 094°05'0 0.0
2018-Feb-11 13:00N 30°05' W 094°05'0 0.0
2018-Feb-11 12:30N 30°05' W 094°05'0 0.0
2018-Feb-11 12:01N 30°05' W 094°05'0 0.0
2018-Feb-11 11:30N 30°05' W 094°05'0 0.0
2018-Feb-11 11:00N 30°05' W 094°05'0 0.0
2018-Feb-11 10:31N 30°05' W 094°05'0 0.0
2018-Feb-11 10:01N 30°05' W 094°05'0 0.0
2018-Feb-11 09:30N 30°05' W 094°05'0 0.0
2018-Feb-11 09:01N 30°05' W 094°05'0 0.0
2018-Feb-11 08:30N 30°05' W 094°05'0 0.0
2018-Feb-11 08:00N 30°05' W 094°05'0 0.0
2018-Feb-11 07:30N 30°05' W 094°05'0 0.0
2018-Feb-11 07:00N 30°05' W 094°05'1 2.1
2018-Feb-11 06:31N 30°05' W 094°04'3 5.4
2018-Feb-11 06:00N 30°02' W 094°02'1 2.6
2018-Feb-11 05:30N 30°01' W 094°01'4 7.8
2018-Feb-11 05:00N 29°60' W 093°57'1 1.4
2018-Feb-11 04:20N 29°59' W 093°56'0 0.0
2018-Feb-11 04:00N 29°59' W 093°56'0 0.0
2018-Feb-11 03:21N 29°59' W 093°56'0 0.0
2018-Feb-11 03:00N 29°59' W 093°56'0 0.0
2018-Feb-11 02:31N 29°59' W 093°56'0 0.0
2018-Feb-11 02:01N 29°59' W 093°56'0 0.0
2018-Feb-11 01:29N 29°59' W 093°56'0 0.0
2018-Feb-11 00:58N 29°59' W 093°56'0 0.0
2018-Feb-11 00:29N 29°59' W 093°56'0 0.0
2018-Feb-10 23:57N 29°59' W 093°56'0 0.0
2018-Feb-10 23:30N 29°59' W 093°56'0 0.6
2018-Feb-10 23:00N 29°59' W 093°56'0 0.6
2018-Feb-10 22:30N 29°59' W 093°56'0 0.0
2018-Feb-10 22:00N 29°59' W 093°56'0 0.0
2018-Feb-10 21:30N 29°59' W 093°56'0 0.0
2018-Feb-10 21:00N 29°59' W 093°56'0 0.0
2018-Feb-10 20:30N 29°59' W 093°56'0 0.0
2018-Feb-10 19:59N 29°59' W 093°56'0 0.0
2018-Feb-10 19:30N 29°59' W 093°56'0 0.0
2018-Feb-10 18:58N 29°59' W 093°56'0 0.0
2018-Feb-10 18:30N 29°59' W 093°56'0 0.0
2018-Feb-10 18:01N 29°59' W 093°56'0 0.0
2018-Feb-10 17:30N 29°59' W 093°56'0 0.0
2018-Feb-10 16:59N 29°59' W 093°56'0 0.9
2018-Feb-10 16:26N 29°59' W 093°56'4 8.6
2018-Feb-10 16:00N 29°58' W 093°51'2 3.7
2018-Feb-10 15:30N 29°57' W 093°52'0 0.0
2018-Feb-10 14:58N 29°57' W 093°52'0 0.0
2018-Feb-10 14:30N 29°57' W 093°52'0 0.0
2018-Feb-10 14:00N 29°57' W 093°52'0 0.0
2018-Feb-10 13:26N 29°57' W 093°52'0 0.0
2018-Feb-10 13:00N 29°57' W 093°52'0 0.0
2018-Feb-10 12:30N 29°57' W 093°52'0 0.0
2018-Feb-10 12:00N 29°57' W 093°52'0 0.0
2018-Feb-10 11:31N 29°57' W 093°52'0 0.0
2018-Feb-10 11:01N 29°57' W 093°52'0 0.0
2018-Feb-10 10:31N 29°57' W 093°52'0 0.0
2018-Feb-10 10:00N 29°57' W 093°52'0 0.0
2018-Feb-10 09:30N 29°57' W 093°52'0 0.0
2018-Feb-10 09:00N 29°57' W 093°52'0 0.0
2018-Feb-10 08:25N 29°57' W 093°52'0 0.0
2018-Feb-10 08:00N 29°57' W 093°52'  

Dump ship's entire track history